METAR Data
IDs: Format: Raw Decoded Include TAF

Data at: 0346 UTC 24 Jun 2021

KAIA 240253Z AUTO 19004KT 10SM CLR 24/08 A2983 RMK AO2 SLP046 T02440083 51017 $